Clermont County, Batavia, OH

11:44 PM EST on December 06, 2019 (GMT -0500)
Clermont County, Batavia

Weather History for KI69 - October, 2019

Change the Weather History Date:

Saturday, October 12, 2019

  Actual Average (KLUK) Record (KLUK)
Temperature  
Mean Temperature 46 °F -  
Max Temperature 55 °F 68 °F 87 °F (1997)
Min Temperature 37 °F 46 °F 29 °F (1988)
Degree Days  
Heating Degree Days 19    
Moisture  
Dew Point 35 °F    
Average Humidity 67    
Maximum Humidity 97    
Minimum Humidity 38    
Precipitation  
Precipitation 0.06 in - - ()
Sea Level Pressure  
Sea Level Pressure 30.13 in    
Wind  
Wind Speed 8 mph (West)    
Max Wind Speed 15 mph    
Max Gust Speed 21 mph    
Visibility 10 miles    
Events Rain    
Averages and records for this station are not official NWS values.
T = Trace of Precipitation, MM = Missing Value Source: NWS Daily Summary

Daily Weather History Graph

Daily Weather History Graph

Search for Another Location

Airport or City:

Astronomy

Oct. 12, 2019 Rise Set
Actual Time 7:43 AM EDT 7:02 PM EDT
Civil Twilight 7:16 AM EDT 7:29 PM EDT
Nautical Twilight 6:45 AM EDT 8:00 PM EDT
Astronomical Twilight 6:14 AM EDT 8:31 PM EDT
Moon 6:57 PM EDT (10/12) 6:20 AM EDT (10/12)
Length of Visible Light 12h 13m
Length of Day
11h 19m
Waxing Gibbous, 99% of the Moon is Illuminated
Oct 12
Waxing Gibbous
Oct 13
Full
Oct 21
Last Quarter
Oct 27
New
Nov 4
First Quarter

Hourly Weather History & Observations

Time (EDT) Temp. Windchill Dew Point Humidity Pressure Visibility Wind Dir Wind Speed Gust Speed Precip Events Conditions
12:18 AM 47.3 °F - 46.4 °F 97% 30.06 in 5.0 mi NW 10.4 mph - 0.01 in   Heavy Drizzle
12:36 AM 46.8 °F - 45.7 °F 96% 30.07 in 5.0 mi WNW 15.0 mph 19.6 mph 0.02 in Rain Rain
12:55 AM 45.5 °F 39.2 °F 44.1 °F 95% 30.07 in 4.0 mi NW 13.8 mph 20.7 mph 0.05 in   Unknown
1:15 AM 44.8 °F 38.3 °F 43.5 °F 95% 30.08 in 4.0 mi NW 13.8 mph 19.6 mph N/A   Overcast
1:35 AM 44.6 °F 39.7 °F 43.3 °F 95% 30.08 in 4.0 mi NW 9.2 mph - N/A   Overcast
1:58 AM 43.7 °F 37.7 °F 41.4 °F 91% 30.08 in 5.0 mi NW 11.5 mph 16.1 mph 0.01 in   Unknown
2:16 AM 43.3 °F 39.2 °F 41.4 °F 93% 30.09 in 10.0 mi NW 6.9 mph - N/A   Overcast
2:35 AM 43.7 °F 39.1 °F 41.9 °F 93% 30.09 in 10.0 mi NW 8.1 mph - N/A   Overcast
2:55 AM 43.7 °F 38.6 °F 41.9 °F 93% 30.09 in 7.0 mi NW 9.2 mph - N/A   Unknown
3:15 AM 43.7 °F 38.1 °F 41.9 °F 93% 30.09 in 10.0 mi WNW 10.4 mph 16.1 mph N/A   Overcast
3:38 AM 43.7 °F 38.6 °F 41.0 °F 90% 30.10 in 10.0 mi NW 9.2 mph - N/A   Overcast
3:56 AM 43.3 °F 39.2 °F 41.2 °F 92% 30.10 in 10.0 mi NW 6.9 mph - N/A   Overcast
4:15 AM 43.2 °F 38.4 °F 40.5 °F 90% 30.10 in 10.0 mi WNW 8.1 mph - N/A   Overcast
4:35 AM 43.2 °F 36.6 °F 40.3 °F 90% 30.11 in 10.0 mi WNW 12.7 mph 18.4 mph N/A   Overcast
4:59 AM 42.8 °F 39.3 °F 37.4 °F 81% 30.12 in 10.0 mi NW 5.8 mph - N/A   Overcast
5:18 AM 42.1 °F 37.7 °F 37.9 °F 85% 30.13 in 10.0 mi NW 6.9 mph - N/A   Overcast
5:36 AM 41.0 °F 35.2 °F 33.4 °F 74% 30.13 in 10.0 mi WNW 9.2 mph - N/A   Mostly Cloudy
5:55 AM 40.3 °F 35.5 °F 32.5 °F 74% 30.14 in 10.0 mi WNW 6.9 mph - N/A   Scattered Clouds
6:15 AM 39.7 °F 35.6 °F 32.7 °F 76% 30.15 in 10.0 mi WNW 5.8 mph - N/A   Clear
6:39 AM 39.2 °F 37.0 °F 33.1 °F 79% 30.15 in 10.0 mi WNW 3.5 mph - N/A   Clear
6:58 AM 38.8 °F - 33.8 °F 82% 30.16 in 10.0 mi Calm Calm - N/A   Clear
7:16 AM 38.3 °F 33.9 °F 33.8 °F 84% 30.16 in 10.0 mi West 5.8 mph - N/A   Clear
7:35 AM 37.8 °F 33.3 °F 33.8 °F 86% 30.17 in 10.0 mi West 5.8 mph - N/A   Clear
7:55 AM 37.8 °F 35.3 °F 34.0 °F 86% 30.17 in 10.0 mi WSW 3.5 mph - N/A   Clear
8:19 AM 38.1 °F 35.7 °F 34.2 °F 86% 30.18 in 10.0 mi WSW 3.5 mph - N/A   Clear
8:37 AM 39.2 °F 35.0 °F 34.5 °F 83% 30.19 in 10.0 mi West 5.8 mph - N/A   Clear
8:56 AM 40.3 °F 37.1 °F 34.3 °F 79% 30.19 in 10.0 mi West 4.6 mph - N/A   Clear
9:15 AM 41.4 °F 37.6 °F 34.0 °F 75% 30.19 in 10.0 mi WNW 5.8 mph - N/A   Clear
9:35 AM 42.3 °F 37.3 °F 32.7 °F 69% 30.20 in 10.0 mi West 8.1 mph - N/A   Clear
9:59 AM 42.8 °F 37.5 °F 31.6 °F 65% 30.20 in 10.0 mi West 9.2 mph - N/A   Clear
10:17 AM 43.5 °F 38.9 °F 30.7 °F 61% 30.20 in 10.0 mi West 8.1 mph - N/A   Clear
10:35 AM 44.8 °F 39.4 °F 32.2 °F 61% 30.20 in 10.0 mi WNW 10.4 mph - N/A   Clear
10:55 AM 44.6 °F 42.2 °F 31.6 °F 60% 30.20 in 10.0 mi West 4.6 mph - N/A   Clear
11:15 AM 45.1 °F 40.8 °F 30.6 °F 57% 30.21 in 10.0 mi West 8.1 mph - N/A   Clear
11:39 AM 46.0 °F 42.5 °F 30.2 °F 54% 30.20 in 10.0 mi WSW 6.9 mph - N/A   Clear
11:57 AM 46.9 °F - 30.4 °F 53% 30.20 in 10.0 mi WSW 8.1 mph - N/A   Clear
12:15 PM 47.7 °F - 29.1 °F 49% 30.20 in 10.0 mi West 4.6 mph - N/A   Clear
12:36 PM 48.2 °F - 29.3 °F 48% 30.20 in 10.0 mi West 5.8 mph - N/A   Clear
12:55 PM 49.1 °F - 29.7 °F 47% 30.19 in 10.0 mi West 8.1 mph - N/A   Clear
1:19 PM 49.8 °F - 30.0 °F 47% 30.19 in 10.0 mi SW 5.8 mph - N/A   Clear
1:37 PM 50.5 °F - 30.2 °F 46% 30.17 in 10.0 mi SW 6.9 mph - N/A   Clear
1:55 PM 52.0 °F - 30.7 °F 44% 30.17 in 10.0 mi West 9.2 mph - N/A   Clear
2:15 PM 52.2 °F - 30.6 °F 44% 30.16 in 10.0 mi SW 10.4 mph - N/A   Clear
2:35 PM 52.7 °F - 30.9 °F 43% 30.16 in 10.0 mi WNW 4.6 mph - N/A   Clear
2:59 PM 54.1 °F - 30.9 °F 41% 30.14 in 10.0 mi WSW 10.4 mph - N/A   Clear
3:17 PM 53.8 °F - 30.2 °F 41% 30.14 in 10.0 mi West 11.5 mph 16.1 mph N/A   Clear
3:35 PM 54.5 °F - 31.3 °F 41% 30.14 in 10.0 mi WSW 8.1 mph 16.1 mph N/A   Clear
3:55 PM 55.2 °F - 31.3 °F 40% 30.13 in 10.0 mi SW 8.1 mph - N/A   Clear
4:15 PM 55.0 °F - 30.2 °F 39% 30.13 in 10.0 mi SW 5.8 mph - N/A   Clear
4:39 PM 55.2 °F - 30.6 °F 39% 30.12 in 10.0 mi West 8.1 mph - N/A   Clear
4:57 PM 55.0 °F - 30.6 °F 39% 30.12 in 10.0 mi SSW 4.6 mph - N/A   Clear
5:15 PM 55.2 °F - 29.8 °F 38% 30.12 in 10.0 mi SW 6.9 mph - N/A   Clear
5:35 PM 54.9 °F - 30.2 °F 39% 30.12 in 10.0 mi SSW 5.8 mph - N/A   Clear
5:55 PM 54.9 °F - 30.9 °F 40% 30.11 in 10.0 mi SW 8.1 mph - N/A   Clear
6:19 PM 54.5 °F - 30.9 °F 41% 30.11 in 10.0 mi SW 6.9 mph - N/A   Clear
6:37 PM 53.6 °F - 30.9 °F 42% 30.11 in 10.0 mi SW 6.9 mph - N/A   Clear
6:55 PM 52.3 °F - 31.6 °F 45% 30.11 in 10.0 mi SSW 3.5 mph - N/A   Clear
7:15 PM 50.5 °F - 32.0 °F 49% 30.10 in 10.0 mi South 3.5 mph - N/A   Clear
7:35 PM 49.5 °F - 32.5 °F 52% 30.10 in 10.0 mi Calm Calm - N/A   Clear
7:59 PM 48.2 °F - 32.9 °F 55% 30.10 in 10.0 mi South 3.5 mph - N/A   Clear
8:17 PM 46.4 °F - 35.2 °F 65% 30.11 in 10.0 mi Calm Calm - N/A   Clear
8:35 PM 45.7 °F - 36.1 °F 69% 30.11 in 10.0 mi Calm Calm - N/A   Clear
8:55 PM 44.8 °F 43.3 °F 35.8 °F 71% 30.11 in 10.0 mi SSW 3.5 mph - N/A   Clear
9:15 PM 43.3 °F - 36.9 °F 78% 30.11 in 10.0 mi Calm Calm - N/A   Clear
9:39 PM 44.2 °F - 34.3 °F 68% 30.11 in 10.0 mi Calm Calm - N/A   Clear
9:57 PM 42.3 °F 40.5 °F 36.0 °F 78% 30.10 in 10.0 mi South 3.5 mph - N/A   Clear
10:15 PM 43.9 °F - 34.2 °F 69% 30.10 in 10.0 mi Calm Calm - N/A   Clear
10:35 PM 42.3 °F - 35.8 °F 78% 30.10 in 10.0 mi Calm Calm - N/A   Clear
10:55 PM 41.0 °F 38.0 °F 35.2 °F 80% 30.10 in 10.0 mi South 4.6 mph - N/A   Clear
11:18 PM 41.0 °F - 34.9 °F 79% 30.09 in 10.0 mi Calm Calm - N/A   Clear
11:37 PM 42.3 °F - 34.3 °F 74% 30.09 in 10.0 mi Calm Calm - N/A   Clear
11:55 PM 39.7 °F - 36.0 °F 86% 30.09 in 10.0 mi Calm Calm - N/A   Clear